sensor_id;sensor_type;location;lat;lon;timestamp;P1;durP1;ratioP1;P2;durP2;ratioP2
21138;SDS011;10727;43.600;1.444;2023-04-23T00:22:02;7.53;;;6.72;;
21138;SDS011;10727;43.600;1.444;2023-04-23T00:25:08;8.25;;;7.03;;
21138;SDS011;10727;43.600;1.444;2023-04-23T00:28:13;7.45;;;6.75;;
21138;SDS011;10727;43.600;1.444;2023-04-23T00:31:18;7.20;;;6.43;;
21138;SDS011;10727;43.600;1.444;2023-04-23T00:34:24;8.10;;;6.55;;
21138;SDS011;10727;43.600;1.444;2023-04-23T00:37:31;10.55;;;6.60;;
21138;SDS011;10727;43.600;1.444;2023-04-23T00:40:36;7.97;;;6.80;;
21138;SDS011;10727;43.600;1.444;2023-04-23T00:43:41;7.95;;;6.38;;
21138;SDS011;10727;43.600;1.444;2023-04-23T00:46:47;7.82;;;6.82;;
21138;SDS011;10727;43.600;1.444;2023-04-23T00:49:54;9.05;;;7.05;;
21138;SDS011;10727;43.600;1.444;2023-04-23T00:53:01;6.57;;;5.93;;
21138;SDS011;10727;43.600;1.444;2023-04-23T00:56:06;5.97;;;5.38;;
21138;SDS011;10727;43.600;1.444;2023-04-23T00:59:11;6.95;;;5.40;;
21138;SDS011;10727;43.600;1.444;2023-04-23T01:02:16;7.53;;;5.95;;
21138;SDS011;10727;43.600;1.444;2023-04-23T01:05:21;6.57;;;5.93;;
21138;SDS011;10727;43.600;1.444;2023-04-23T01:08:28;7.80;;;6.03;;
21138;SDS011;10727;43.600;1.444;2023-04-23T01:11:36;7.45;;;6.32;;
21138;SDS011;10727;43.600;1.444;2023-04-23T01:14:42;6.65;;;5.95;;
21138;SDS011;10727;43.600;1.444;2023-04-23T01:17:47;6.85;;;6.15;;
21138;SDS011;10727;43.600;1.444;2023-04-23T01:20:53;6.20;;;5.60;;
21138;SDS011;10727;43.600;1.444;2023-04-23T01:23:59;6.43;;;5.72;;
21138;SDS011;10727;43.600;1.444;2023-04-23T01:27:04;5.38;;;4.88;;
21138;SDS011;10727;43.600;1.444;2023-04-23T01:30:10;5.45;;;4.90;;
21138;SDS011;10727;43.600;1.444;2023-04-23T01:33:15;5.28;;;4.78;;
21138;SDS011;10727;43.600;1.444;2023-04-23T01:36:21;5.32;;;4.82;;
21138;SDS011;10727;43.600;1.444;2023-04-23T01:39:29;5.13;;;4.63;;
21138;SDS011;10727;43.600;1.444;2023-04-23T01:42:34;6.10;;;5.50;;
21138;SDS011;10727;43.600;1.444;2023-04-23T01:45:43;5.65;;;5.13;;
21138;SDS011;10727;43.600;1.444;2023-04-23T01:48:52;5.63;;;5.10;;
21138;SDS011;10727;43.600;1.444;2023-04-23T01:51:57;6.05;;;5.45;;
21138;SDS011;10727;43.600;1.444;2023-04-23T01:55:08;5.50;;;5.00;;
21138;SDS011;10727;43.600;1.444;2023-04-23T01:58:13;5.22;;;4.32;;
21138;SDS011;10727;43.600;1.444;2023-04-23T02:01:19;4.82;;;4.25;;
21138;SDS011;10727;43.600;1.444;2023-04-23T02:04:34;4.53;;;4.13;;
21138;SDS011;10727;43.600;1.444;2023-04-23T02:07:40;4.88;;;4.38;;
21138;SDS011;10727;43.600;1.444;2023-04-23T02:10:48;5.22;;;4.72;;
21138;SDS011;10727;43.600;1.444;2023-04-23T02:13:54;5.45;;;4.10;;
21138;SDS011;10727;43.600;1.444;2023-04-23T02:16:59;4.53;;;4.13;;
21138;SDS011;10727;43.600;1.444;2023-04-23T02:20:05;5.05;;;4.30;;
21138;SDS011;10727;43.600;1.444;2023-04-23T02:23:11;81.45;;;54.53;;
21138;SDS011;10727;43.600;1.444;2023-04-23T02:26:18;80.97;;;50.55;;
21138;SDS011;10727;43.600;1.444;2023-04-23T02:29:24;94.82;;;56.38;;
21138;SDS011;10727;43.600;1.444;2023-04-23T02:32:31;32.05;;;22.67;;
21138;SDS011;10727;43.600;1.444;2023-04-23T02:35:37;6.80;;;6.07;;
21138;SDS011;10727;43.600;1.444;2023-04-23T02:38:42;4.93;;;3.80;;
21138;SDS011;10727;43.600;1.444;2023-04-23T02:41:50;4.20;;;3.80;;
21138;SDS011;10727;43.600;1.444;2023-04-23T02:44:55;4.32;;;3.92;;
21138;SDS011;10727;43.600;1.444;2023-04-23T02:48:00;4.88;;;4.38;;
21138;SDS011;10727;43.600;1.444;2023-04-23T02:51:07;4.53;;;4.13;;
21138;SDS011;10727;43.600;1.444;2023-04-23T02:54:13;5.70;;;3.97;;
21138;SDS011;10727;43.600;1.444;2023-04-23T02:57:19;4.55;;;4.05;;
21138;SDS011;10727;43.600;1.444;2023-04-23T03:00:25;4.28;;;3.88;;
21138;SDS011;10727;43.600;1.444;2023-04-23T03:03:31;4.68;;;4.05;;
21138;SDS011;10727;43.600;1.444;2023-04-23T03:06:39;4.78;;;3.92;;
21138;SDS011;10727;43.600;1.444;2023-04-23T03:09:45;5.80;;;4.10;;
21138;SDS011;10727;43.600;1.444;2023-04-23T03:12:51;4.10;;;3.70;;
21138;SDS011;10727;43.600;1.444;2023-04-23T03:20:59;3.97;;;3.53;;
21138;SDS011;10727;43.600;1.444;2023-04-23T03:24:04;3.97;;;3.58;;
21138;SDS011;10727;43.600;1.444;2023-04-23T03:27:10;4.13;;;3.42;;
21138;SDS011;10727;43.600;1.444;2023-04-23T03:30:16;3.38;;;3.08;;
21138;SDS011;10727;43.600;1.444;2023-04-23T03:33:21;3.42;;;3.13;;
21138;SDS011;10727;43.600;1.444;2023-04-23T03:36:26;3.80;;;3.50;;
21138;SDS011;10727;43.600;1.444;2023-04-23T03:39:31;3.60;;;3.30;;
21138;SDS011;10727;43.600;1.444;2023-04-23T03:42:37;3.45;;;3.15;;
21138;SDS011;10727;43.600;1.444;2023-04-23T03:50:51;3.60;;;3.30;;
21138;SDS011;10727;43.600;1.444;2023-04-23T03:54:08;4.00;;;3.10;;
21138;SDS011;10727;43.600;1.444;2023-04-23T03:57:19;3.30;;;3.00;;
21138;SDS011;10727;43.600;1.444;2023-04-23T04:00:32;3.42;;;3.13;;
21138;SDS011;10727;43.600;1.444;2023-04-23T04:03:37;2.95;;;2.70;;
21138;SDS011;10727;43.600;1.444;2023-04-23T04:06:44;3.00;;;2.80;;
21138;SDS011;10727;43.600;1.444;2023-04-23T04:09:48;6.47;;;3.03;;
21138;SDS011;10727;43.600;1.444;2023-04-23T04:12:53;3.20;;;2.90;;
21138;SDS011;10727;43.600;1.444;2023-04-23T04:15:59;3.30;;;3.00;;
21138;SDS011;10727;43.600;1.444;2023-04-23T04:19:04;3.10;;;2.80;;
21138;SDS011;10727;43.600;1.444;2023-04-23T04:22:10;3.33;;;3.03;;
21138;SDS011;10727;43.600;1.444;2023-04-23T04:25:15;3.50;;;3.20;;
21138;SDS011;10727;43.600;1.444;2023-04-23T04:28:24;3.20;;;2.90;;
21138;SDS011;10727;43.600;1.444;2023-04-23T04:31:29;3.63;;;3.20;;
21138;SDS011;10727;43.600;1.444;2023-04-23T04:34:34;3.45;;;3.15;;
21138;SDS011;10727;43.600;1.444;2023-04-23T04:37:41;5.20;;;3.40;;
21138;SDS011;10727;43.600;1.444;2023-04-23T04:40:46;3.20;;;2.90;;
21138;SDS011;10727;43.600;1.444;2023-04-23T04:43:52;3.75;;;3.30;;
21138;SDS011;10727;43.600;1.444;2023-04-23T04:46:58;4.18;;;3.22;;
21138;SDS011;10727;43.600;1.444;2023-04-23T04:50:04;3.50;;;3.20;;
21138;SDS011;10727;43.600;1.444;2023-04-23T04:53:13;3.20;;;2.90;;
21138;SDS011;10727;43.600;1.444;2023-04-23T04:56:18;3.33;;;3.03;;
21138;SDS011;10727;43.600;1.444;2023-04-23T04:59:26;3.03;;;2.72;;
21138;SDS011;10727;43.600;1.444;2023-04-23T05:02:30;3.15;;;2.80;;
21138;SDS011;10727;43.600;1.444;2023-04-23T05:05:36;3.00;;;2.75;;
21138;SDS011;10727;43.600;1.444;2023-04-23T05:08:42;2.83;;;2.63;;
21138;SDS011;10727;43.600;1.444;2023-04-23T05:11:50;2.70;;;2.50;;
21138;SDS011;10727;43.600;1.444;2023-04-23T05:14:55;3.30;;;3.00;;
21138;SDS011;10727;43.600;1.444;2023-04-23T05:18:01;2.75;;;2.55;;
21138;SDS011;10727;43.600;1.444;2023-04-23T05:21:06;2.83;;;2.63;;
21138;SDS011;10727;43.600;1.444;2023-04-23T05:24:13;3.00;;;2.72;;
21138;SDS011;10727;43.600;1.444;2023-04-23T05:27:18;2.97;;;2.67;;
21138;SDS011;10727;43.600;1.444;2023-04-23T05:30:24;3.17;;;2.70;;
21138;SDS011;10727;43.600;1.444;2023-04-23T05:33:29;2.63;;;2.42;;
21138;SDS011;10727;43.600;1.444;2023-04-23T05:36:35;3.47;;;2.95;;
21138;SDS011;10727;43.600;1.444;2023-04-23T05:39:41;2.67;;;2.35;;
21138;SDS011;10727;43.600;1.444;2023-04-23T05:42:46;3.17;;;2.60;;
21138;SDS011;10727;43.600;1.444;2023-04-23T05:45:51;2.70;;;2.50;;
21138;SDS011;10727;43.600;1.444;2023-04-23T05:48:56;2.90;;;2.60;;
21138;SDS011;10727;43.600;1.444;2023-04-23T05:52:01;2.53;;;2.33;;
21138;SDS011;10727;43.600;1.444;2023-04-23T05:55:08;2.58;;;2.35;;
21138;SDS011;10727;43.600;1.444;2023-04-23T05:58:13;2.47;;;2.28;;
21138;SDS011;10727;43.600;1.444;2023-04-23T06:06:10;3.50;;;2.20;;
21138;SDS011;10727;43.600;1.444;2023-04-23T06:09:15;2.22;;;2.03;;
21138;SDS011;10727;43.600;1.444;2023-04-23T06:12:22;2.47;;;2.25;;
21138;SDS011;10727;43.600;1.444;2023-04-23T06:15:27;3.55;;;2.50;;
21138;SDS011;10727;43.600;1.444;2023-04-23T06:18:32;3.13;;;2.40;;
21138;SDS011;10727;43.600;1.444;2023-04-23T06:21:38;3.10;;;2.80;;
21138;SDS011;10727;43.600;1.444;2023-04-23T06:24:43;2.55;;;2.35;;
21138;SDS011;10727;43.600;1.444;2023-04-23T06:27:49;2.30;;;2.10;;
21138;SDS011;10727;43.600;1.444;2023-04-23T06:30:58;3.38;;;2.15;;
21138;SDS011;10727;43.600;1.444;2023-04-23T06:34:04;2.60;;;2.40;;
21138;SDS011;10727;43.600;1.444;2023-04-23T06:37:09;2.55;;;1.95;;
21138;SDS011;10727;43.600;1.444;2023-04-23T06:40:15;2.42;;;2.22;;
21138;SDS011;10727;43.600;1.444;2023-04-23T06:43:21;2.25;;;2.05;;
21138;SDS011;10727;43.600;1.444;2023-04-23T06:46:46;2.35;;;1.90;;
21138;SDS011;10727;43.600;1.444;2023-04-23T06:49:58;3.92;;;2.28;;
21138;SDS011;10727;43.600;1.444;2023-04-23T06:53:04;7.53;;;6.00;;
21138;SDS011;10727;43.600;1.444;2023-04-23T06:56:09;4.60;;;3.13;;
21138;SDS011;10727;43.600;1.444;2023-04-23T06:59:16;2.95;;;2.10;;
21138;SDS011;10727;43.600;1.444;2023-04-23T07:02:37;3.63;;;1.98;;
21138;SDS011;10727;43.600;1.444;2023-04-23T07:05:42;1.83;;;1.73;;
21138;SDS011;10727;43.600;1.444;2023-04-23T07:08:47;1.60;;;1.50;;
21138;SDS011;10727;43.600;1.444;2023-04-23T07:11:52;2.03;;;1.73;;
21138;SDS011;10727;43.600;1.444;2023-04-23T07:14:59;1.73;;;1.63;;
21138;SDS011;10727;43.600;1.444;2023-04-23T07:18:04;1.70;;;1.60;;
21138;SDS011;10727;43.600;1.444;2023-04-23T07:21:10;1.80;;;1.70;;
21138;SDS011;10727;43.600;1.444;2023-04-23T07:24:15;1.80;;;1.70;;
21138;SDS011;10727;43.600;1.444;2023-04-23T07:27:21;1.50;;;1.40;;
21138;SDS011;10727;43.600;1.444;2023-04-23T07:30:29;3.15;;;1.52;;
21138;SDS011;10727;43.600;1.444;2023-04-23T07:33:34;3.20;;;1.75;;
21138;SDS011;10727;43.600;1.444;2023-04-23T07:36:39;2.30;;;2.10;;
21138;SDS011;10727;43.600;1.444;2023-04-23T07:39:44;2.13;;;1.92;;
21138;SDS011;10727;43.600;1.444;2023-04-23T07:42:49;1.90;;;1.70;;
21138;SDS011;10727;43.600;1.444;2023-04-23T07:45:56;2.95;;;1.50;;
21138;SDS011;10727;43.600;1.444;2023-04-23T07:49:02;2.75;;;1.55;;
21138;SDS011;10727;43.600;1.444;2023-04-23T07:52:10;3.90;;;1.45;;
21138;SDS011;10727;43.600;1.444;2023-04-23T07:55:15;1.50;;;1.40;;
21138;SDS011;10727;43.600;1.444;2023-04-23T07:58:22;1.45;;;1.35;;
21138;SDS011;10727;43.600;1.444;2023-04-23T08:01:29;1.90;;;1.40;;
21138;SDS011;10727;43.600;1.444;2023-04-23T08:04:36;2.25;;;1.40;;
21138;SDS011;10727;43.600;1.444;2023-04-23T08:07:41;2.38;;;1.70;;
21138;SDS011;10727;43.600;1.444;2023-04-23T08:10:46;2.22;;;1.42;;
21138;SDS011;10727;43.600;1.444;2023-04-23T08:13:52;2.17;;;1.52;;
21138;SDS011;10727;43.600;1.444;2023-04-23T08:16:58;1.75;;;1.40;;
21138;SDS011;10727;43.600;1.444;2023-04-23T08:20:03;1.52;;;1.40;;
21138;SDS011;10727;43.600;1.444;2023-04-23T08:23:09;4.75;;;1.40;;
21138;SDS011;10727;43.600;1.444;2023-04-23T08:26:14;1.52;;;1.30;;
21138;SDS011;10727;43.600;1.444;2023-04-23T08:29:20;0.90;;;0.90;;
21138;SDS011;10727;43.600;1.444;2023-04-23T08:32:26;1.73;;;1.00;;
21138;SDS011;10727;43.600;1.444;2023-04-23T08:35:31;1.38;;;1.27;;
21138;SDS011;10727;43.600;1.444;2023-04-23T08:38:36;1.98;;;1.20;;
21138;SDS011;10727;43.600;1.444;2023-04-23T08:41:41;4.57;;;1.30;;
21138;SDS011;10727;43.600;1.444;2023-04-23T08:44:47;1.20;;;1.10;;
21138;SDS011;10727;43.600;1.444;2023-04-23T08:47:57;1.92;;;1.00;;
21138;SDS011;10727;43.600;1.444;2023-04-23T08:51:03;1.13;;;1.00;;
21138;SDS011;10727;43.600;1.444;2023-04-23T08:54:09;1.20;;;1.00;;
21138;SDS011;10727;43.600;1.444;2023-04-23T08:57:25;0.88;;;0.70;;
21138;SDS011;10727;43.600;1.444;2023-04-23T09:00:31;2.45;;;1.02;;
21138;SDS011;10727;43.600;1.444;2023-04-23T09:03:38;3.00;;;1.10;;
21138;SDS011;10727;43.600;1.444;2023-04-23T09:06:44;1.02;;;0.90;;
21138;SDS011;10727;43.600;1.444;2023-04-23T09:09:49;1.30;;;1.00;;
21138;SDS011;10727;43.600;1.444;2023-04-23T09:12:54;1.63;;;1.08;;
21138;SDS011;10727;43.600;1.444;2023-04-23T09:15:59;1.92;;;1.10;;
21138;SDS011;10727;43.600;1.444;2023-04-23T09:19:06;2.13;;;0.95;;
21138;SDS011;10727;43.600;1.444;2023-04-23T09:22:15;1.40;;;1.00;;
21138;SDS011;10727;43.600;1.444;2023-04-23T09:25:22;4.00;;;1.00;;
21138;SDS011;10727;43.600;1.444;2023-04-23T09:28:33;1.42;;;0.95;;
21138;SDS011;10727;43.600;1.444;2023-04-23T09:36:34;1.23;;;0.80;;
21138;SDS011;10727;43.600;1.444;2023-04-23T09:39:40;1.10;;;1.00;;
21138;SDS011;10727;43.600;1.444;2023-04-23T09:42:46;1.08;;;0.98;;
21138;SDS011;10727;43.600;1.444;2023-04-23T09:45:57;1.17;;;0.98;;
21138;SDS011;10727;43.600;1.444;2023-04-23T09:49:11;1.38;;;0.90;;
21138;SDS011;10727;43.600;1.444;2023-04-23T09:52:33;2.10;;;1.10;;
21138;SDS011;10727;43.600;1.444;2023-04-23T09:55:44;1.50;;;1.08;;
21138;SDS011;10727;43.600;1.444;2023-04-23T09:58:55;1.13;;;0.98;;
21138;SDS011;10727;43.600;1.444;2023-04-23T10:02:37;1.17;;;1.02;;
21138;SDS011;10727;43.600;1.444;2023-04-23T10:05:40;2.05;;;1.30;;
21138;SDS011;10727;43.600;1.444;2023-04-23T10:08:48;1.25;;;1.00;;
21138;SDS011;10727;43.600;1.444;2023-04-23T10:11:53;1.30;;;1.15;;
21138;SDS011;10727;43.600;1.444;2023-04-23T10:15:09;1.30;;;1.00;;
21138;SDS011;10727;43.600;1.444;2023-04-23T10:18:21;1.40;;;1.10;;
21138;SDS011;10727;43.600;1.444;2023-04-23T10:21:25;1.73;;;1.00;;
21138;SDS011;10727;43.600;1.444;2023-04-23T10:24:36;1.33;;;0.98;;
21138;SDS011;10727;43.600;1.444;2023-04-23T10:27:48;1.88;;;0.98;;
21138;SDS011;10727;43.600;1.444;2023-04-23T10:30:53;0.82;;;0.82;;
21138;SDS011;10727;43.600;1.444;2023-04-23T10:33:59;2.25;;;1.10;;
21138;SDS011;10727;43.600;1.444;2023-04-23T10:37:07;1.25;;;1.00;;
21138;SDS011;10727;43.600;1.444;2023-04-23T10:40:17;1.35;;;0.90;;
21138;SDS011;10727;43.600;1.444;2023-04-23T10:43:23;1.58;;;1.00;;
21138;SDS011;10727;43.600;1.444;2023-04-23T10:51:32;2.15;;;1.20;;
21138;SDS011;10727;43.600;1.444;2023-04-23T10:54:37;1.23;;;1.10;;
21138;SDS011;10727;43.600;1.444;2023-04-23T10:57:58;3.58;;;1.45;;
21138;SDS011;10727;43.600;1.444;2023-04-23T11:01:03;3.40;;;1.58;;
21138;SDS011;10727;43.600;1.444;2023-04-23T11:04:18;1.83;;;1.30;;
21138;SDS011;10727;43.600;1.444;2023-04-23T11:07:24;1.65;;;1.45;;
21138;SDS011;10727;43.600;1.444;2023-04-23T11:10:30;3.22;;;1.40;;
21138;SDS011;10727;43.600;1.444;2023-04-23T11:13:51;2.63;;;1.30;;
21138;SDS011;10727;43.600;1.444;2023-04-23T11:21:59;4.22;;;1.40;;
21138;SDS011;10727;43.600;1.444;2023-04-23T11:25:07;1.70;;;1.10;;
21138;SDS011;10727;43.600;1.444;2023-04-23T11:28:35;3.00;;;1.33;;
21138;SDS011;10727;43.600;1.444;2023-04-23T11:36:47;3.50;;;1.40;;
21138;SDS011;10727;43.600;1.444;2023-04-23T11:39:52;2.67;;;1.35;;
21138;SDS011;10727;43.600;1.444;2023-04-23T11:42:58;3.55;;;1.40;;
21138;SDS011;10727;43.600;1.444;2023-04-23T11:51:09;3.95;;;1.58;;
21138;SDS011;10727;43.600;1.444;2023-04-23T11:54:16;5.45;;;1.60;;
21138;SDS011;10727;43.600;1.444;2023-04-23T11:57:22;6.43;;;1.80;;
21138;SDS011;10727;43.600;1.444;2023-04-23T12:00:27;5.82;;;1.60;;
21138;SDS011;10727;43.600;1.444;2023-04-23T12:03:32;5.10;;;1.75;;
21138;SDS011;10727;43.600;1.444;2023-04-23T12:06:37;5.28;;;1.42;;
21138;SDS011;10727;43.600;1.444;2023-04-23T12:09:45;4.22;;;1.58;;
21138;SDS011;10727;43.600;1.444;2023-04-23T12:12:51;3.08;;;1.73;;
21138;SDS011;10727;43.600;1.444;2023-04-23T12:16:08;2.28;;;1.40;;
21138;SDS011;10727;43.600;1.444;2023-04-23T12:19:13;3.78;;;1.80;;
21138;SDS011;10727;43.600;1.444;2023-04-23T12:22:18;3.67;;;1.60;;
21138;SDS011;10727;43.600;1.444;2023-04-23T12:25:31;3.63;;;1.70;;
21138;SDS011;10727;43.600;1.444;2023-04-23T12:28:44;4.13;;;1.60;;
21138;SDS011;10727;43.600;1.444;2023-04-23T12:31:50;5.93;;;1.48;;
21138;SDS011;10727;43.600;1.444;2023-04-23T12:34:55;4.00;;;2.00;;
21138;SDS011;10727;43.600;1.444;2023-04-23T12:38:03;5.90;;;2.10;;
21138;SDS011;10727;43.600;1.444;2023-04-23T12:41:10;5.80;;;1.70;;
21138;SDS011;10727;43.600;1.444;2023-04-23T12:44:15;3.95;;;1.52;;
21138;SDS011;10727;43.600;1.444;2023-04-23T12:47:21;3.15;;;1.67;;
21138;SDS011;10727;43.600;1.444;2023-04-23T12:50:26;3.10;;;1.70;;
21138;SDS011;10727;43.600;1.444;2023-04-23T12:53:31;2.78;;;1.38;;
21138;SDS011;10727;43.600;1.444;2023-04-23T12:56:37;3.58;;;1.20;;
21138;SDS011;10727;43.600;1.444;2023-04-23T13:04:45;2.95;;;1.40;;
21138;SDS011;10727;43.600;1.444;2023-04-23T13:07:56;4.28;;;1.65;;
21138;SDS011;10727;43.600;1.444;2023-04-23T13:11:01;5.28;;;1.98;;
21138;SDS011;10727;43.600;1.444;2023-04-23T13:14:08;4.20;;;1.63;;
21138;SDS011;10727;43.600;1.444;2023-04-23T13:17:13;5.05;;;1.67;;
21138;SDS011;10727;43.600;1.444;2023-04-23T13:20:18;5.60;;;2.08;;
21138;SDS011;10727;43.600;1.444;2023-04-23T13:23:23;4.35;;;1.90;;
21138;SDS011;10727;43.600;1.444;2023-04-23T13:26:29;4.15;;;1.80;;
21138;SDS011;10727;43.600;1.444;2023-04-23T13:29:36;4.30;;;1.90;;
21138;SDS011;10727;43.600;1.444;2023-04-23T13:32:42;5.75;;;1.60;;
21138;SDS011;10727;43.600;1.444;2023-04-23T13:35:47;6.55;;;1.75;;
21138;SDS011;10727;43.600;1.444;2023-04-23T13:38:53;4.57;;;1.45;;
21138;SDS011;10727;43.600;1.444;2023-04-23T13:41:58;3.92;;;1.70;;
21138;SDS011;10727;43.600;1.444;2023-04-23T13:50:08;4.30;;;1.75;;
21138;SDS011;10727;43.600;1.444;2023-04-23T13:53:14;2.95;;;1.33;;
21138;SDS011;10727;43.600;1.444;2023-04-23T13:56:19;2.90;;;1.50;;
21138;SDS011;10727;43.600;1.444;2023-04-23T13:59:24;2.58;;;1.60;;
21138;SDS011;10727;43.600;1.444;2023-04-23T14:02:29;3.80;;;1.38;;
21138;SDS011;10727;43.600;1.444;2023-04-23T14:05:36;7.95;;;4.65;;
21138;SDS011;10727;43.600;1.444;2023-04-23T14:08:41;5.47;;;2.38;;
21138;SDS011;10727;43.600;1.444;2023-04-23T14:11:47;5.85;;;3.90;;
21138;SDS011;10727;43.600;1.444;2023-04-23T14:19:55;3.88;;;1.80;;
21138;SDS011;10727;43.600;1.444;2023-04-23T14:23:02;4.32;;;1.60;;
21138;SDS011;10727;43.600;1.444;2023-04-23T14:26:20;3.28;;;1.60;;
21138;SDS011;10727;43.600;1.444;2023-04-23T14:29:28;3.90;;;1.50;;
21138;SDS011;10727;43.600;1.444;2023-04-23T14:32:35;2.58;;;1.50;;
21138;SDS011;10727;43.600;1.444;2023-04-23T14:35:40;2.05;;;1.40;;
21138;SDS011;10727;43.600;1.444;2023-04-23T14:38:47;4.20;;;1.95;;
21138;SDS011;10727;43.600;1.444;2023-04-23T14:41:52;3.65;;;2.17;;
21138;SDS011;10727;43.600;1.444;2023-04-23T14:49:59;4.63;;;2.75;;
21138;SDS011;10727;43.600;1.444;2023-04-23T14:53:04;4.28;;;1.95;;
21138;SDS011;10727;43.600;1.444;2023-04-23T14:56:13;5.47;;;2.30;;
21138;SDS011;10727;43.600;1.444;2023-04-23T14:59:18;4.47;;;2.05;;
21138;SDS011;10727;43.600;1.444;2023-04-23T15:06:58;4.78;;;1.88;;
21138;SDS011;10727;43.600;1.444;2023-04-23T15:10:03;2.83;;;2.05;;
21138;SDS011;10727;43.600;1.444;2023-04-23T15:13:26;4.47;;;2.25;;
21138;SDS011;10727;43.600;1.444;2023-04-23T15:16:34;3.40;;;2.17;;
21138;SDS011;10727;43.600;1.444;2023-04-23T15:19:40;4.28;;;2.00;;
21138;SDS011;10727;43.600;1.444;2023-04-23T15:22:45;3.60;;;2.05;;
21138;SDS011;10727;43.600;1.444;2023-04-23T15:25:51;2.63;;;2.00;;
21138;SDS011;10727;43.600;1.444;2023-04-23T15:28:57;9.27;;;7.53;;
21138;SDS011;10727;43.600;1.444;2023-04-23T15:37:00;6.22;;;4.20;;
21138;SDS011;10727;43.600;1.444;2023-04-23T15:40:26;6.90;;;3.65;;
21138;SDS011;10727;43.600;1.444;2023-04-23T15:43:32;7.38;;;3.60;;
21138;SDS011;10727;43.600;1.444;2023-04-23T15:46:38;5.50;;;3.72;;
21138;SDS011;10727;43.600;1.444;2023-04-23T15:49:43;6.50;;;3.67;;
21138;SDS011;10727;43.600;1.444;2023-04-23T15:52:48;6.70;;;3.60;;
21138;SDS011;10727;43.600;1.444;2023-04-23T15:55:54;5.05;;;2.70;;
21138;SDS011;10727;43.600;1.444;2023-04-23T15:58:59;5.45;;;2.33;;
21138;SDS011;10727;43.600;1.444;2023-04-23T16:02:06;4.22;;;2.20;;
21138;SDS011;10727;43.600;1.444;2023-04-23T16:05:11;4.38;;;2.90;;
21138;SDS011;10727;43.600;1.444;2023-04-23T16:08:16;5.00;;;2.70;;
21138;SDS011;10727;43.600;1.444;2023-04-23T16:11:21;3.90;;;2.00;;
21138;SDS011;10727;43.600;1.444;2023-04-23T16:19:32;3.47;;;2.00;;
21138;SDS011;10727;43.600;1.444;2023-04-23T16:22:51;2.67;;;1.75;;
21138;SDS011;10727;43.600;1.444;2023-04-23T16:25:56;4.60;;;1.90;;
21138;SDS011;10727;43.600;1.444;2023-04-23T16:29:03;4.38;;;2.22;;
21138;SDS011;10727;43.600;1.444;2023-04-23T16:37:01;4.95;;;2.40;;
21138;SDS011;10727;43.600;1.444;2023-04-23T16:40:07;4.05;;;2.40;;
21138;SDS011;10727;43.600;1.444;2023-04-23T16:43:12;3.92;;;2.10;;
21138;SDS011;10727;43.600;1.444;2023-04-23T16:46:17;3.92;;;2.30;;
21138;SDS011;10727;43.600;1.444;2023-04-23T16:49:22;4.07;;;2.70;;
21138;SDS011;10727;43.600;1.444;2023-04-23T16:55:49;4.03;;;2.10;;
21138;SDS011;10727;43.600;1.444;2023-04-23T16:58:54;4.70;;;1.85;;
21138;SDS011;10727;43.600;1.444;2023-04-23T17:01:59;3.22;;;2.00;;
21138;SDS011;10727;43.600;1.444;2023-04-23T17:05:05;3.63;;;1.85;;
21138;SDS011;10727;43.600;1.444;2023-04-23T17:08:10;3.88;;;1.85;;
21138;SDS011;10727;43.600;1.444;2023-04-23T17:11:16;3.08;;;1.75;;
21138;SDS011;10727;43.600;1.444;2023-04-23T17:14:21;3.03;;;1.70;;
21138;SDS011;10727;43.600;1.444;2023-04-23T17:17:27;4.85;;;1.70;;
21138;SDS011;10727;43.600;1.444;2023-04-23T17:20:32;1.98;;;1.70;;
21138;SDS011;10727;43.600;1.444;2023-04-23T17:23:37;2.45;;;1.85;;
21138;SDS011;10727;43.600;1.444;2023-04-23T17:26:44;3.20;;;1.73;;
21138;SDS011;10727;43.600;1.444;2023-04-23T17:34:52;3.00;;;1.70;;
21138;SDS011;10727;43.600;1.444;2023-04-23T17:37:58;5.22;;;1.92;;
21138;SDS011;10727;43.600;1.444;2023-04-23T17:41:02;3.08;;;1.50;;
21138;SDS011;10727;43.600;1.444;2023-04-23T17:44:09;3.65;;;1.52;;
21138;SDS011;10727;43.600;1.444;2023-04-23T17:47:14;3.05;;;1.45;;
21138;SDS011;10727;43.600;1.444;2023-04-23T17:50:20;3.33;;;1.80;;
21138;SDS011;10727;43.600;1.444;2023-04-23T17:53:25;3.30;;;1.60;;
21138;SDS011;10727;43.600;1.444;2023-04-23T17:56:33;2.45;;;1.70;;
21138;SDS011;10727;43.600;1.444;2023-04-23T17:59:39;3.47;;;2.10;;
21138;SDS011;10727;43.600;1.444;2023-04-23T18:02:44;6.82;;;4.28;;
21138;SDS011;10727;43.600;1.444;2023-04-23T18:05:50;10.55;;;7.97;;
21138;SDS011;10727;43.600;1.444;2023-04-23T18:08:55;4.25;;;2.85;;
21138;SDS011;10727;43.600;1.444;2023-04-23T18:12:00;3.40;;;2.10;;
21138;SDS011;10727;43.600;1.444;2023-04-23T18:15:09;4.53;;;2.00;;
21138;SDS011;10727;43.600;1.444;2023-04-23T18:18:14;4.18;;;1.85;;
21138;SDS011;10727;43.600;1.444;2023-04-23T18:21:20;4.68;;;1.83;;
21138;SDS011;10727;43.600;1.444;2023-04-23T18:24:25;2.97;;;1.83;;
21138;SDS011;10727;43.600;1.444;2023-04-23T18:27:34;6.93;;;5.05;;
21138;SDS011;10727;43.600;1.444;2023-04-23T18:30:48;10.50;;;8.52;;
21138;SDS011;10727;43.600;1.444;2023-04-23T18:33:53;9.82;;;6.72;;
21138;SDS011;10727;43.600;1.444;2023-04-23T18:37:07;7.70;;;4.68;;
21138;SDS011;10727;43.600;1.444;2023-04-23T18:40:12;5.72;;;3.95;;
21138;SDS011;10727;43.600;1.444;2023-04-23T18:43:17;6.88;;;4.28;;
21138;SDS011;10727;43.600;1.444;2023-04-23T18:46:28;7.22;;;3.25;;
21138;SDS011;10727;43.600;1.444;2023-04-23T18:49:43;5.25;;;3.08;;
21138;SDS011;10727;43.600;1.444;2023-04-23T18:53:19;4.85;;;3.13;;
21138;SDS011;10727;43.600;1.444;2023-04-23T18:56:34;5.30;;;3.03;;
21138;SDS011;10727;43.600;1.444;2023-04-23T23:49:19;5.10;;;2.00;;
21138;SDS011;10727;43.600;1.444;2023-04-23T23:52:24;7.13;;;2.30;;
21138;SDS011;10727;43.600;1.444;2023-04-23T23:55:29;6.72;;;2.20;;
21138;SDS011;10727;43.600;1.444;2023-04-23T23:58:34;6.22;;;2.38;;
